createdAt,value
2019-05-25T00:00:41.219Z,36.60
2019-05-25T00:03:14.516Z,36.50
2019-05-25T00:05:47.968Z,36.57
2019-05-25T00:08:21.235Z,36.62
2019-05-25T00:10:54.633Z,36.63
2019-05-25T00:13:27.935Z,36.64
2019-05-25T00:16:01.591Z,36.66
2019-05-25T00:18:34.907Z,36.66
2019-05-25T00:21:08.244Z,36.69
2019-05-25T00:23:41.567Z,36.74
2019-05-25T00:26:14.907Z,36.69
2019-05-25T00:28:48.227Z,36.76
2019-05-25T00:31:21.645Z,36.71
2019-05-25T00:33:54.952Z,36.72
2019-05-25T00:36:28.358Z,36.74
2019-05-25T00:39:01.660Z,36.74
2019-05-25T00:41:36.238Z,36.72
2019-05-25T00:44:09.576Z,36.44
2019-05-25T00:46:42.943Z,36.62
2019-05-25T00:49:16.244Z,36.65
2019-05-25T00:51:49.534Z,36.70
2019-05-25T00:54:28.016Z,36.68
2019-05-25T00:56:58.987Z,36.71
2019-05-25T00:59:32.416Z,36.70
2019-05-25T01:02:05.758Z,36.75
2019-05-25T01:04:39.052Z,36.28
2019-05-25T01:07:12.405Z,36.52
2019-05-25T01:09:45.715Z,36.57
2019-05-25T01:12:19.069Z,36.60
2019-05-25T01:14:52.543Z,36.67
2019-05-25T01:17:26.036Z,36.37
2019-05-25T01:19:59.330Z,36.56
2019-05-25T01:22:32.665Z,36.62
2019-05-25T01:25:06.135Z,36.21
2019-05-25T01:27:40.787Z,36.48
2019-05-25T01:30:14.103Z,36.39
2019-05-25T01:32:47.564Z,36.54
2019-05-25T01:35:20.870Z,36.55
2019-05-25T01:37:54.210Z,36.25
2019-05-25T01:40:28.586Z,36.48
2019-05-25T01:43:01.933Z,36.59
2019-05-25T01:45:35.242Z,36.63
2019-05-25T01:48:08.575Z,36.65
2019-05-25T01:50:41.891Z,36.68
2019-05-25T01:53:15.348Z,36.72
2019-05-25T01:55:48.657Z,36.74
2019-05-25T01:58:21.996Z,36.75
2019-05-25T02:00:55.303Z,36.77
2019-05-25T02:03:28.682Z,36.81
2019-05-25T02:06:01.970Z,36.78
2019-05-25T02:08:35.283Z,36.82
2019-05-25T02:11:08.580Z,36.47
2019-05-25T02:13:41.956Z,36.63
2019-05-25T02:16:15.267Z,36.70
2019-05-25T02:18:48.630Z,36.73
2019-05-25T02:21:21.941Z,36.76
2019-05-25T02:23:55.295Z,36.52
2019-05-25T02:26:28.609Z,36.64
2019-05-25T02:29:01.951Z,36.70
2019-05-25T02:31:35.243Z,36.29
2019-05-25T02:34:08.589Z,36.58
2019-05-25T02:36:41.886Z,36.60
2019-05-25T02:39:15.251Z,36.63
2019-05-25T02:41:48.606Z,36.66
2019-05-25T02:44:21.993Z,36.69
2019-05-25T02:46:55.289Z,36.72
2019-05-25T02:49:30.198Z,36.76
2019-05-25T02:52:03.487Z,36.29
2019-05-25T02:54:37.903Z,36.53
2019-05-25T02:57:12.265Z,36.52
2019-05-25T02:59:45.595Z,36.63
2019-05-25T03:02:18.943Z,36.70
2019-05-25T03:04:52.233Z,36.72
2019-05-25T03:07:25.554Z,36.75
2019-05-25T03:09:58.871Z,36.77
2019-05-25T03:12:32.230Z,36.81
2019-05-25T03:15:07.055Z,36.84
2019-05-25T03:17:40.524Z,36.63
2019-05-25T03:20:14.794Z,36.74
2019-05-25T03:22:48.833Z,36.81
2019-05-25T03:25:22.148Z,36.32
2019-05-25T03:27:55.493Z,36.61
2019-05-25T03:30:36.461Z,36.71
2019-05-25T03:33:09.783Z,36.81
2019-05-25T03:35:43.113Z,36.81
2019-05-25T03:38:16.449Z,36.47
2019-05-25T03:40:49.772Z,36.73
2019-05-25T03:43:23.112Z,36.77
2019-05-25T03:45:56.420Z,36.40
2019-05-25T03:48:29.790Z,36.63
2019-05-25T03:51:03.080Z,36.72
2019-05-25T03:53:37.496Z,36.80
2019-05-25T03:56:10.806Z,36.85
2019-05-25T03:58:44.131Z,36.59
2019-05-25T04:01:17.431Z,36.77
2019-05-25T04:03:50.752Z,36.82
2019-05-25T04:06:24.086Z,36.91
2019-05-25T04:08:57.209Z,36.90
2019-05-25T04:11:30.597Z,36.79
2019-05-25T04:14:03.937Z,36.91
2019-05-25T04:16:37.296Z,36.92
2019-05-25T04:19:10.599Z,36.52
2019-05-25T04:21:44.219Z,36.79
2019-05-25T04:24:17.523Z,36.85
2019-05-25T04:26:50.908Z,36.40
2019-05-25T04:29:24.232Z,36.71
2019-05-25T04:31:57.567Z,36.50
2019-05-25T04:34:30.863Z,36.75
2019-05-25T04:37:04.215Z,36.82
2019-05-25T04:39:37.533Z,36.52
2019-05-25T04:42:10.861Z,36.78
2019-05-25T04:44:44.192Z,36.78
2019-05-25T04:47:26.493Z,36.89
2019-05-25T04:49:52.626Z,36.97
2019-05-25T04:52:25.923Z,36.85
2019-05-25T04:54:59.262Z,37.01
2019-05-25T04:57:32.569Z,37.06
2019-05-25T05:00:06.479Z,36.57
2019-05-25T05:02:39.801Z,36.85
2019-05-25T05:05:13.391Z,36.94
2019-05-25T05:07:46.827Z,36.53
2019-05-25T05:10:20.120Z,36.76
2019-05-25T05:12:54.515Z,36.51
2019-05-25T05:15:27.870Z,36.77
2019-05-25T05:18:01.165Z,36.88
2019-05-25T05:20:34.588Z,36.67
2019-05-25T05:23:09.561Z,36.88
2019-05-25T05:25:42.902Z,36.96
2019-05-25T05:28:16.215Z,37.03
2019-05-25T05:30:49.546Z,37.04
2019-05-25T05:33:22.909Z,36.97
2019-05-25T05:35:56.245Z,37.06
2019-05-25T05:38:29.607Z,37.12
2019-05-25T05:41:03.084Z,37.26
2019-05-25T05:43:36.708Z,37.33
2019-05-25T05:46:09.999Z,37.33
2019-05-25T05:48:43.339Z,36.82
2019-05-25T05:51:19.070Z,37.17
2019-05-25T05:53:54.221Z,37.23
2019-05-25T05:56:27.640Z,37.25
2019-05-25T05:59:01.229Z,37.43
2019-05-25T06:01:34.586Z,37.34
2019-05-25T06:04:07.920Z,37.46
2019-05-25T06:06:41.219Z,37.35
2019-05-25T06:09:14.553Z,37.51
2019-05-25T06:11:47.904Z,37.50
2019-05-25T06:14:21.266Z,37.60
2019-05-25T06:16:54.588Z,36.57
2019-05-25T06:19:27.924Z,37.01
2019-05-25T06:22:01.236Z,36.62
2019-05-25T06:24:34.781Z,37.16
2019-05-25T06:27:08.123Z,37.25
2019-05-25T06:29:41.472Z,37.24
2019-05-25T06:32:14.874Z,37.47
2019-05-25T06:34:48.204Z,37.19
2019-05-25T06:37:22.502Z,37.41
2019-05-25T06:39:55.818Z,37.50
2019-05-25T06:42:29.347Z,37.15
2019-05-25T06:45:03.444Z,37.45
2019-05-25T06:47:36.962Z,37.39
2019-05-25T06:50:10.297Z,37.50
2019-05-25T06:52:43.605Z,37.63
2019-05-25T06:55:16.941Z,37.54
2019-05-25T06:57:50.248Z,36.89
2019-05-25T07:00:23.576Z,37.03
2019-05-25T07:02:56.905Z,36.97
2019-05-25T07:05:30.253Z,37.13
2019-05-25T07:08:03.382Z,37.26
2019-05-25T07:10:37.690Z,37.11
2019-05-25T07:13:11.010Z,36.89
2019-05-25T07:15:45.774Z,37.00
2019-05-25T07:18:20.086Z,36.44
2019-05-25T07:20:53.448Z,37.00
2019-05-25T07:23:28.415Z,36.97
2019-05-25T07:26:01.748Z,36.99
2019-05-25T07:28:35.062Z,37.31
2019-05-25T07:31:08.424Z,37.24
2019-05-25T07:33:41.727Z,37.26
2019-05-25T07:36:15.063Z,37.15
2019-05-25T07:38:48.381Z,36.43
2019-05-25T07:41:21.954Z,36.94
2019-05-25T07:43:55.301Z,36.66
2019-05-25T07:46:28.636Z,37.08
2019-05-25T07:49:01.981Z,37.28
2019-05-25T07:51:35.328Z,37.11
2019-05-25T07:54:08.699Z,36.84
2019-05-25T07:56:42.165Z,36.93
2019-05-25T07:59:15.483Z,37.01
2019-05-25T08:01:48.842Z,37.11
2019-05-25T08:04:22.196Z,36.78
2019-05-25T08:06:55.549Z,36.86
2019-05-25T08:09:28.923Z,36.88
2019-05-25T08:12:02.549Z,36.87
2019-05-25T08:14:36.754Z,36.89
2019-05-25T08:17:10.266Z,36.87
2019-05-25T08:19:43.690Z,36.23
2019-05-25T08:22:17.022Z,36.68
2019-05-25T08:24:50.521Z,36.64
2019-05-25T08:27:23.847Z,36.85
2019-05-25T08:29:57.191Z,37.02
2019-05-25T08:32:30.485Z,36.59
2019-05-25T08:35:05.426Z,36.73
2019-05-25T08:37:40.297Z,36.77
2019-05-25T08:40:13.661Z,35.92
2019-05-25T08:42:47.053Z,36.41
2019-05-25T08:45:20.417Z,36.80
2019-05-25T08:47:56.809Z,36.80
2019-05-25T08:50:37.690Z,36.70
2019-05-25T08:53:03.824Z,36.70
2019-05-25T08:55:37.184Z,36.61
2019-05-25T08:58:10.474Z,36.44
2019-05-25T09:00:44.308Z,35.90
2019-05-25T09:03:17.597Z,36.61
2019-05-25T09:05:50.938Z,36.64
2019-05-25T09:08:24.262Z,36.69
2019-05-25T09:10:57.601Z,36.76
2019-05-25T09:13:32.575Z,36.30
2019-05-25T09:16:05.914Z,36.48
2019-05-25T09:18:39.224Z,36.53
2019-05-25T09:21:12.582Z,36.57
2019-05-25T09:23:48.686Z,36.58
2019-05-25T09:26:20.983Z,36.62
2019-05-25T09:29:04.109Z,36.05
2019-05-25T09:31:30.136Z,36.59
2019-05-25T09:34:03.317Z,36.33
2019-05-25T09:36:36.634Z,36.63
2019-05-25T09:39:10.243Z,36.65
2019-05-25T09:41:43.558Z,36.18
2019-05-25T09:44:16.931Z,36.38
2019-05-25T09:46:50.234Z,36.55
2019-05-25T09:49:23.667Z,36.55
2019-05-25T09:51:56.993Z,36.91
2019-05-25T09:54:30.309Z,36.87
2019-05-25T09:57:03.643Z,36.92
2019-05-25T09:59:36.981Z,36.73
2019-05-25T10:02:10.292Z,35.87
2019-05-25T10:04:43.631Z,36.36
2019-05-25T10:07:17.102Z,36.55
2019-05-25T10:09:50.509Z,35.88
2019-05-25T10:12:23.884Z,36.30
2019-05-25T10:14:57.240Z,35.97
2019-05-25T10:17:30.553Z,36.51
2019-05-25T10:20:05.169Z,36.69
2019-05-25T10:22:39.608Z,35.99
2019-05-25T10:25:13.437Z,36.32
2019-05-25T10:27:46.761Z,36.44
2019-05-25T10:30:20.102Z,36.80
2019-05-25T10:32:54.636Z,36.67
2019-05-25T10:35:27.999Z,36.02
2019-05-25T10:38:01.333Z,35.96
2019-05-25T10:40:34.672Z,36.14
2019-05-25T10:43:07.975Z,36.25
2019-05-25T10:45:41.315Z,36.38
2019-05-25T10:48:14.613Z,36.04
2019-05-25T10:50:49.528Z,36.29
2019-05-25T10:53:22.826Z,36.24
2019-05-25T10:55:56.140Z,36.18
2019-05-25T10:58:29.456Z,36.47
2019-05-25T11:01:02.810Z,36.64
2019-05-25T11:03:36.111Z,35.85
2019-05-25T11:06:09.476Z,36.38
2019-05-25T11:08:42.789Z,36.73
2019-05-25T11:11:15.936Z,36.87
2019-05-25T11:13:49.244Z,36.71
2019-05-25T11:16:22.597Z,36.16
2019-05-25T11:18:55.943Z,36.45
2019-05-25T11:21:29.277Z,36.53
2019-05-25T11:24:02.662Z,35.99
2019-05-25T11:26:36.169Z,36.59
2019-05-25T11:29:09.479Z,36.62
2019-05-25T11:31:42.854Z,35.78
2019-05-25T11:34:16.053Z,36.16
2019-05-25T11:36:49.433Z,36.05
2019-05-25T11:39:22.737Z,35.46
2019-05-25T11:41:56.090Z,35.04
2019-05-25T11:44:29.443Z,34.28
2019-05-25T11:47:02.809Z,34.65
2019-05-25T11:49:36.407Z,34.26
2019-05-25T11:52:09.758Z,34.36
2019-05-25T11:54:43.075Z,34.48
2019-05-25T11:57:16.417Z,34.10
2019-05-25T11:59:49.703Z,34.27
2019-05-25T12:02:23.121Z,34.36
2019-05-25T12:04:56.445Z,34.23
2019-05-25T12:07:29.775Z,34.10
2019-05-25T12:10:03.345Z,34.22
2019-05-25T12:12:37.727Z,33.57
2019-05-25T12:15:11.034Z,34.32
2019-05-25T12:17:44.341Z,34.24
2019-05-25T12:20:17.728Z,34.14
2019-05-25T12:22:51.059Z,34.25
2019-05-25T12:25:24.374Z,34.06
2019-05-25T12:27:57.917Z,34.37
2019-05-25T12:30:40.263Z,34.49
2019-05-25T12:33:06.244Z,34.67
2019-05-25T12:35:39.957Z,34.78
2019-05-25T12:38:13.311Z,34.78
2019-05-25T12:40:53.760Z,34.82
2019-05-25T12:43:21.777Z,34.91
2019-05-25T12:45:55.738Z,34.71
2019-05-25T12:48:29.178Z,34.95
2019-05-25T12:51:02.491Z,34.96
2019-05-25T12:53:35.839Z,34.55
2019-05-25T12:56:12.126Z,34.96
2019-05-25T12:58:46.107Z,35.21
2019-05-25T13:01:19.410Z,35.21
2019-05-25T13:03:53.870Z,35.25
2019-05-25T13:06:27.184Z,34.99
2019-05-25T13:09:00.534Z,35.33
2019-05-25T13:11:33.884Z,35.53
2019-05-25T13:14:14.597Z,34.90
2019-05-25T13:16:42.401Z,35.21
2019-05-25T13:19:15.781Z,35.37
2019-05-25T13:21:49.158Z,35.45
2019-05-25T13:24:22.521Z,35.44
2019-05-25T13:26:55.838Z,35.35
2019-05-25T13:29:29.172Z,35.50
2019-05-25T13:32:02.469Z,35.55
2019-05-25T13:34:35.808Z,35.16
2019-05-25T13:37:09.109Z,35.23
2019-05-25T13:39:42.445Z,35.29
2019-05-25T13:42:16.519Z,34.77
2019-05-25T13:44:49.941Z,35.14
2019-05-25T13:47:24.917Z,34.90
2019-05-25T13:49:58.255Z,35.21
2019-05-25T13:52:31.566Z,35.37
2019-05-25T13:55:05.631Z,35.12
2019-05-25T13:57:39.036Z,35.30
2019-05-25T14:00:12.452Z,35.45
2019-05-25T14:02:47.085Z,35.48
2019-05-25T14:05:20.452Z,35.45
2019-05-25T14:07:53.799Z,35.61
2019-05-25T14:10:27.133Z,35.60
2019-05-25T14:13:00.537Z,35.66
2019-05-25T14:15:33.880Z,35.24
2019-05-25T14:18:07.176Z,35.49
2019-05-25T14:20:40.675Z,35.63
2019-05-25T14:23:13.988Z,35.31
2019-05-25T14:25:47.331Z,35.58
2019-05-25T14:28:22.392Z,35.39
2019-05-25T14:30:55.826Z,35.54
2019-05-25T14:33:30.216Z,35.61
2019-05-25T14:36:03.602Z,35.67
2019-05-25T14:38:36.924Z,35.68
2019-05-25T14:41:10.238Z,35.74
2019-05-25T14:43:43.595Z,35.13
2019-05-25T14:46:27.473Z,35.49
2019-05-25T14:48:51.944Z,35.56
2019-05-25T14:51:25.273Z,35.00
2019-05-25T14:53:58.620Z,35.42
2019-05-25T14:56:31.959Z,35.12
2019-05-25T14:59:05.335Z,35.44
2019-05-25T15:01:38.657Z,35.65
2019-05-25T15:04:12.205Z,35.30
2019-05-25T15:06:45.506Z,35.58
2019-05-25T15:09:19.877Z,35.68
2019-05-25T15:11:54.114Z,35.74
2019-05-25T15:14:27.592Z,35.81
2019-05-25T15:17:01.866Z,35.86
2019-05-25T15:19:35.245Z,35.88
2019-05-25T15:22:08.590Z,35.98
2019-05-25T15:24:41.991Z,35.69
2019-05-25T15:27:15.248Z,35.86
2019-05-25T15:29:48.610Z,35.93
2019-05-25T15:32:22.039Z,36.13
2019-05-25T15:34:55.542Z,36.08
2019-05-25T15:37:30.470Z,36.24
2019-05-25T15:40:07.049Z,36.38
2019-05-25T15:42:40.591Z,36.40
2019-05-25T15:45:13.870Z,36.48
2019-05-25T15:47:48.822Z,36.19
2019-05-25T15:50:22.146Z,36.47
2019-05-25T15:52:56.837Z,36.32
2019-05-25T15:55:30.368Z,36.49
2019-05-25T15:58:03.723Z,36.26
2019-05-25T16:00:50.452Z,36.26
2019-05-25T16:03:23.876Z,36.52
2019-05-25T16:05:57.178Z,36.68
2019-05-25T16:08:30.518Z,36.71
2019-05-25T16:11:03.849Z,36.73
2019-05-25T16:13:37.155Z,36.76
2019-05-25T16:16:10.503Z,36.77
2019-05-25T16:18:43.813Z,36.75
2019-05-25T16:21:17.289Z,36.48
2019-05-25T16:23:50.609Z,36.73
2019-05-25T16:26:23.950Z,36.77
2019-05-25T16:28:57.262Z,36.46
2019-05-25T16:31:30.645Z,36.63
2019-05-25T16:34:03.949Z,36.69
2019-05-25T16:36:37.305Z,36.71
2019-05-25T16:39:10.763Z,36.92
2019-05-25T16:41:44.198Z,36.73
2019-05-25T16:44:17.509Z,36.84
2019-05-25T16:46:50.923Z,36.96
2019-05-25T16:49:24.229Z,36.50
2019-05-25T16:51:57.569Z,36.77
2019-05-25T16:54:30.947Z,36.85
2019-05-25T16:57:04.331Z,36.89
2019-05-25T16:59:37.638Z,36.85
2019-05-25T17:02:10.991Z,36.92
2019-05-25T17:04:44.346Z,36.89
2019-05-25T17:07:17.693Z,36.87
2019-05-25T17:09:50.995Z,36.93
2019-05-25T17:12:24.368Z,36.93
2019-05-25T17:14:57.692Z,36.84
2019-05-25T17:17:31.102Z,36.28
2019-05-25T17:20:04.977Z,36.61
2019-05-25T17:22:38.386Z,36.76
2019-05-25T17:25:11.902Z,36.76
2019-05-25T17:27:45.239Z,36.77
2019-05-25T17:30:21.839Z,36.53
2019-05-25T17:32:55.430Z,36.71
2019-05-25T17:35:29.059Z,36.74
2019-05-25T17:38:02.598Z,36.46
2019-05-25T17:40:35.956Z,36.62
2019-05-25T17:43:09.367Z,36.82
2019-05-25T17:45:42.680Z,36.46
2019-05-25T17:48:16.930Z,36.21
2019-05-25T17:50:50.400Z,36.03
2019-05-25T17:53:23.735Z,35.77
2019-05-25T17:55:57.133Z,35.51
2019-05-25T17:58:30.512Z,34.73
2019-05-25T18:01:03.827Z,34.95
2019-05-25T18:03:37.279Z,35.22
2019-05-25T18:06:10.649Z,34.83
2019-05-25T18:08:44.001Z,35.46
2019-05-25T18:11:17.336Z,35.66
2019-05-25T18:13:52.149Z,35.14
2019-05-25T18:16:25.544Z,35.51
2019-05-25T18:18:58.896Z,35.89
2019-05-25T18:21:32.056Z,36.00
2019-05-25T18:24:05.513Z,36.09
2019-05-25T18:26:39.019Z,35.92
2019-05-25T18:29:12.343Z,36.17
2019-05-25T18:31:45.786Z,36.24
2019-05-25T18:34:22.034Z,36.13
2019-05-25T18:36:54.621Z,36.41
2019-05-25T18:39:27.819Z,36.69
2019-05-25T18:42:01.228Z,36.78
2019-05-25T18:44:34.555Z,37.00
2019-05-25T18:47:07.987Z,37.11
2019-05-25T18:49:41.285Z,37.44
2019-05-25T18:52:14.652Z,37.34
2019-05-25T18:54:48.017Z,37.27
2019-05-25T18:57:21.428Z,37.30
2019-05-25T18:59:54.809Z,37.22
2019-05-25T19:02:28.249Z,36.62
2019-05-25T19:05:01.929Z,36.85
2019-05-25T19:07:35.670Z,36.66
2019-05-25T19:10:09.971Z,36.88
2019-05-25T19:12:43.320Z,36.93
2019-05-25T19:15:16.816Z,36.73
2019-05-25T19:17:50.394Z,36.85
2019-05-25T19:20:23.730Z,36.99
2019-05-25T19:22:57.060Z,36.95
2019-05-25T19:25:30.383Z,37.13
2019-05-25T19:28:03.746Z,37.06
2019-05-25T19:30:37.049Z,37.19
2019-05-25T19:33:10.503Z,37.12
2019-05-25T19:35:43.804Z,36.76
2019-05-25T19:38:17.161Z,36.91
2019-05-25T19:40:50.487Z,36.97
2019-05-25T19:43:23.866Z,36.98
2019-05-25T19:45:57.171Z,37.35
2019-05-25T19:48:32.089Z,37.32
2019-05-25T19:51:05.414Z,37.42
2019-05-25T19:53:38.764Z,37.36
2019-05-25T19:56:12.126Z,37.38
2019-05-25T19:58:45.434Z,37.50
2019-05-25T20:01:18.792Z,37.14
2019-05-25T20:03:52.086Z,36.62
2019-05-25T20:06:25.453Z,37.03
2019-05-25T20:08:58.814Z,37.19
2019-05-25T20:11:32.135Z,36.75
2019-05-25T20:14:05.914Z,36.84
2019-05-25T20:16:39.411Z,36.59
2019-05-25T20:19:12.767Z,36.69
2019-05-25T20:21:46.106Z,37.09
2019-05-25T20:24:19.464Z,36.65
2019-05-25T20:26:52.801Z,36.72
2019-05-25T20:29:26.240Z,35.89
2019-05-25T20:32:00.206Z,36.48
2019-05-25T20:34:33.836Z,36.67
2019-05-25T20:37:07.142Z,36.49
2019-05-25T20:39:40.503Z,36.84
2019-05-25T20:42:15.160Z,36.88
2019-05-25T20:44:48.674Z,37.11
2019-05-25T20:47:22.250Z,37.07
2019-05-25T20:49:55.580Z,37.33
2019-05-25T20:52:28.971Z,37.42
2019-05-25T20:55:02.631Z,37.49
2019-05-25T20:57:36.032Z,37.21
2019-05-25T21:00:09.337Z,37.45
2019-05-25T21:02:42.952Z,37.47
2019-05-25T21:05:16.281Z,37.10
2019-05-25T21:07:49.593Z,37.32
2019-05-25T21:10:22.942Z,37.23
2019-05-25T21:12:56.508Z,37.44
2019-05-25T21:15:29.827Z,37.68
2019-05-25T21:18:03.190Z,37.46
2019-05-25T21:20:36.510Z,37.75
2019-05-25T21:23:09.853Z,37.80
2019-05-25T21:25:43.443Z,37.30
2019-05-25T21:28:16.785Z,37.50
2019-05-25T21:30:50.125Z,37.59
2019-05-25T21:33:23.582Z,37.89
2019-05-25T21:36:07.669Z,37.92
2019-05-25T21:38:31.952Z,37.98
2019-05-25T21:41:05.287Z,38.16
2019-05-25T21:43:38.638Z,38.14
2019-05-25T21:46:11.961Z,38.08
2019-05-25T21:48:45.291Z,38.09
2019-05-25T21:51:18.650Z,37.97
2019-05-25T21:53:51.978Z,38.13
2019-05-25T21:56:25.320Z,38.21
2019-05-25T21:58:58.703Z,38.17
2019-05-25T22:01:32.007Z,38.20
2019-05-25T22:04:06.064Z,37.72
2019-05-25T22:06:40.139Z,37.72
2019-05-25T22:09:13.505Z,38.07
2019-05-25T22:11:46.802Z,38.02
2019-05-25T22:14:20.145Z,38.32
2019-05-25T22:16:53.641Z,38.27
2019-05-25T22:19:27.002Z,38.03
2019-05-25T22:22:00.383Z,37.89
2019-05-25T22:24:33.746Z,37.90
2019-05-25T22:27:07.077Z,37.90
2019-05-25T22:29:40.394Z,37.93
2019-05-25T22:32:13.763Z,37.81
2019-05-25T22:34:47.139Z,37.97
2019-05-25T22:37:20.461Z,38.00
2019-05-25T22:39:53.625Z,38.00
2019-05-25T22:42:26.951Z,38.04
2019-05-25T22:45:00.289Z,38.05
2019-05-25T22:47:33.616Z,38.11
2019-05-25T22:50:08.672Z,38.11
2019-05-25T22:52:41.812Z,37.78
2019-05-25T22:55:15.162Z,37.94
2019-05-25T22:57:48.471Z,37.97
2019-05-25T23:00:21.798Z,37.52
2019-05-25T23:02:55.333Z,37.80
2019-05-25T23:05:28.673Z,37.70
2019-05-25T23:08:02.135Z,37.81
2019-05-25T23:10:35.515Z,37.89
2019-05-25T23:13:08.821Z,37.55
2019-05-25T23:15:42.193Z,37.71
2019-05-25T23:18:15.501Z,37.86
2019-05-25T23:20:48.923Z,37.33
2019-05-25T23:23:23.536Z,37.61
2019-05-25T23:25:56.892Z,37.74
2019-05-25T23:28:30.360Z,37.82
2019-05-25T23:31:03.702Z,37.84
2019-05-25T23:33:37.025Z,37.31
2019-05-25T23:36:11.963Z,37.70
2019-05-25T23:38:45.263Z,37.69
2019-05-25T23:41:18.639Z,37.82
2019-05-25T23:43:51.987Z,37.83
2019-05-25T23:46:25.340Z,37.46
2019-05-25T23:48:58.670Z,37.77
2019-05-25T23:51:31.982Z,37.85
2019-05-25T23:54:05.329Z,37.22
2019-05-25T23:56:38.628Z,37.70
2019-05-25T23:59:13.556Z,37.84
